sensor_id;sensor_type;location;lat;lon;timestamp;pressure;altitude;pressure_sealevel;temperature;humidity
38253;BME280;24785;52.372;20.672;2023-07-08T00:08:17;101355.00;;;10.28;100.00
38253;BME280;24785;52.372;20.672;2023-07-08T00:18:18;101363.06;;;10.12;100.00
38253;BME280;24785;52.372;20.672;2023-07-08T00:28:20;101361.00;;;9.97;100.00
38253;BME280;24785;52.372;20.672;2023-07-08T00:38:25;101367.25;;;9.86;100.00
38253;BME280;24785;52.372;20.672;2023-07-08T00:48:30;101371.31;;;9.71;100.00
38253;BME280;24785;52.372;20.672;2023-07-08T00:58:34;101363.88;;;9.57;100.00
38253;BME280;24785;52.372;20.672;2023-07-08T01:08:35;101365.78;;;9.28;100.00
38253;BME280;24785;52.372;20.672;2023-07-08T01:18:36;101376.06;;;9.02;100.00
38253;BME280;24785;52.372;20.672;2023-07-08T01:28:37;101365.88;;;9.16;100.00
38253;BME280;24785;52.372;20.672;2023-07-08T01:38:38;101358.66;;;9.17;100.00
38253;BME280;24785;52.372;20.672;2023-07-08T01:48:40;101360.91;;;9.08;100.00
38253;BME280;24785;52.372;20.672;2023-07-08T01:58:42;101347.50;;;8.91;100.00
38253;BME280;24785;52.372;20.672;2023-07-08T02:08:43;101337.19;;;8.83;100.00
38253;BME280;24785;52.372;20.672;2023-07-08T02:18:44;101336.19;;;8.72;100.00
38253;BME280;24785;52.372;20.672;2023-07-08T02:28:45;101342.63;;;8.60;100.00
38253;BME280;24785;52.372;20.672;2023-07-08T02:38:45;101342.06;;;8.58;100.00
38253;BME280;24785;52.372;20.672;2023-07-08T02:48:46;101343.31;;;8.67;100.00
38253;BME280;24785;52.372;20.672;2023-07-08T02:58:47;101341.72;;;8.82;100.00
38253;BME280;24785;52.372;20.672;2023-07-08T03:08:48;101342.44;;;9.06;100.00
38253;BME280;24785;52.372;20.672;2023-07-08T03:18:49;101356.25;;;9.49;100.00
38253;BME280;24785;52.372;20.672;2023-07-08T03:28:50;101348.53;;;11.54;100.00
38253;BME280;24785;52.372;20.672;2023-07-08T03:38:51;101350.06;;;15.17;93.65
38253;BME280;24785;52.372;20.672;2023-07-08T03:48:52;101346.25;;;17.93;71.99
38253;BME280;24785;52.372;20.672;2023-07-08T03:58:53;101336.56;;;18.83;66.07
38253;BME280;24785;52.372;20.672;2023-07-08T04:08:54;101317.31;;;19.91;60.56
38253;BME280;24785;52.372;20.672;2023-07-08T04:18:55;101326.84;;;20.28;60.54
38253;BME280;24785;52.372;20.672;2023-07-08T04:28:57;101317.25;;;21.60;56.57
38253;BME280;24785;52.372;20.672;2023-07-08T04:38:57;101307.16;;;22.79;52.48
38253;BME280;24785;52.372;20.672;2023-07-08T04:48:59;101311.56;;;23.58;50.24
38253;BME280;24785;52.372;20.672;2023-07-08T04:59:01;101308.53;;;23.39;49.89
38253;BME280;24785;52.372;20.672;2023-07-08T05:09:02;101302.78;;;24.62;47.59
38253;BME280;24785;52.372;20.672;2023-07-08T05:19:03;101300.66;;;23.82;47.97
38253;BME280;24785;52.372;20.672;2023-07-08T05:29:03;101305.44;;;22.95;51.06
38253;BME280;24785;52.372;20.672;2023-07-08T05:39:05;101306.81;;;22.39;51.72
38253;BME280;24785;52.372;20.672;2023-07-08T05:49:06;101295.22;;;22.12;51.82
38253;BME280;24785;52.372;20.672;2023-07-08T05:59:07;101293.00;;;21.76;55.11
38253;BME280;24785;52.372;20.672;2023-07-08T06:09:08;101290.72;;;21.78;54.33
38253;BME280;24785;52.372;20.672;2023-07-08T06:19:09;101295.31;;;21.95;54.25
38253;BME280;24785;52.372;20.672;2023-07-08T06:29:10;101293.63;;;22.11;53.28
38253;BME280;24785;52.372;20.672;2023-07-08T06:39:11;101275.69;;;22.52;51.42
38253;BME280;24785;52.372;20.672;2023-07-08T06:49:12;101263.38;;;22.87;48.59
38253;BME280;24785;52.372;20.672;2023-07-08T06:59:13;101246.19;;;23.32;46.16
38253;BME280;24785;52.372;20.672;2023-07-08T07:09:14;101245.91;;;23.82;44.36
38253;BME280;24785;52.372;20.672;2023-07-08T07:19:14;101241.81;;;23.89;43.14
38253;BME280;24785;52.372;20.672;2023-07-08T07:29:16;101233.44;;;24.22;39.36
38253;BME280;24785;52.372;20.672;2023-07-08T07:39:17;101220.91;;;24.61;43.48
38253;BME280;24785;52.372;20.672;2023-07-08T07:49:17;101218.56;;;25.19;38.48
38253;BME280;24785;52.372;20.672;2023-07-08T07:59:18;101212.81;;;25.24;35.27
38253;BME280;24785;52.372;20.672;2023-07-08T08:09:19;101205.47;;;25.28;34.62
38253;BME280;24785;52.372;20.672;2023-07-08T08:19:20;101204.13;;;25.37;35.12
38253;BME280;24785;52.372;20.672;2023-07-08T08:29:21;101201.28;;;25.81;34.27
38253;BME280;24785;52.372;20.672;2023-07-08T08:39:23;101211.41;;;25.61;34.23
38253;BME280;24785;52.372;20.672;2023-07-08T08:49:26;101213.88;;;25.82;34.28
38253;BME280;24785;52.372;20.672;2023-07-08T08:59:35;101210.53;;;25.73;35.24
38253;BME280;24785;52.372;20.672;2023-07-08T09:09:45;101206.13;;;25.88;34.76
38253;BME280;24785;52.372;20.672;2023-07-08T09:30:12;101212.31;;;26.35;33.56
38253;BME280;24785;52.372;20.672;2023-07-08T09:40:15;101199.59;;;26.89;33.23
38253;BME280;24785;52.372;20.672;2023-07-08T09:50:18;101187.66;;;26.81;33.17
38253;BME280;24785;52.372;20.672;2023-07-08T10:00:27;101190.59;;;26.30;35.34
38253;BME280;24785;52.372;20.672;2023-07-08T10:10:30;101178.59;;;27.23;32.49
38253;BME280;24785;52.372;20.672;2023-07-08T10:20:41;101178.59;;;27.46;32.70
38253;BME280;24785;52.372;20.672;2023-07-08T11:11:43;101133.09;;;27.82;31.03
38253;BME280;24785;52.372;20.672;2023-07-08T11:21:46;101133.81;;;27.49;30.57
38253;BME280;24785;52.372;20.672;2023-07-08T11:31:48;101114.25;;;28.47;29.31
38253;BME280;24785;52.372;20.672;2023-07-08T11:41:49;101105.66;;;28.56;29.83
38253;BME280;24785;52.372;20.672;2023-07-08T11:51:53;101103.88;;;28.37;29.94
38253;BME280;24785;52.372;20.672;2023-07-08T12:02:03;101109.16;;;29.41;27.59
38253;BME280;24785;52.372;20.672;2023-07-08T12:12:06;101089.59;;;29.68;27.97
38253;BME280;24785;52.372;20.672;2023-07-08T12:22:08;101099.97;;;28.05;29.87
38253;BME280;24785;52.372;20.672;2023-07-08T12:32:11;101091.47;;;27.57;30.95
38253;BME280;24785;52.372;20.672;2023-07-08T12:42:13;101081.72;;;27.37;31.13
38253;BME280;24785;52.372;20.672;2023-07-08T12:52:21;101061.75;;;27.13;31.32
38253;BME280;24785;52.372;20.672;2023-07-08T13:02:22;101069.16;;;27.39;30.35
38253;BME280;24785;52.372;20.672;2023-07-08T13:12:26;101048.31;;;27.95;29.65
38253;BME280;24785;52.372;20.672;2023-07-08T13:22:27;101043.97;;;28.31;28.99
38253;BME280;24785;52.372;20.672;2023-07-08T13:32:31;101043.91;;;27.90;29.53
38253;BME280;24785;52.372;20.672;2023-07-08T13:42:32;101038.06;;;27.95;29.39
38253;BME280;24785;52.372;20.672;2023-07-08T13:52:33;101025.06;;;27.92;29.05
38253;BME280;24785;52.372;20.672;2023-07-08T14:02:34;101020.56;;;28.99;27.27
38253;BME280;24785;52.372;20.672;2023-07-08T14:12:35;101007.50;;;28.92;27.53
38253;BME280;24785;52.372;20.672;2023-07-08T14:22:36;101007.72;;;28.73;28.29
38253;BME280;24785;52.372;20.672;2023-07-08T14:32:36;101006.59;;;29.39;27.22
38253;BME280;24785;52.372;20.672;2023-07-08T14:42:37;100989.91;;;30.16;26.58
38253;BME280;24785;52.372;20.672;2023-07-08T14:52:38;100978.06;;;30.12;26.62
38253;BME280;24785;52.372;20.672;2023-07-08T15:02:40;100974.94;;;30.31;25.96
38253;BME280;24785;52.372;20.672;2023-07-08T15:12:41;100966.88;;;29.65;25.90
38253;BME280;24785;52.372;20.672;2023-07-08T15:22:42;100956.09;;;32.22;24.16
38253;BME280;24785;52.372;20.672;2023-07-08T15:32:44;100936.16;;;35.90;19.56
38253;BME280;24785;52.372;20.672;2023-07-08T15:42:46;100929.28;;;36.11;19.67
38253;BME280;24785;52.372;20.672;2023-07-08T15:52:48;100933.78;;;33.49;21.52
38253;BME280;24785;52.372;20.672;2023-07-08T16:02:50;100946.75;;;31.18;24.58
38253;BME280;24785;52.372;20.672;2023-07-08T16:12:52;100941.75;;;30.34;25.93
38253;BME280;24785;52.372;20.672;2023-07-08T16:22:58;100936.94;;;29.96;25.68
38253;BME280;24785;52.372;20.672;2023-07-08T16:32:59;100922.34;;;29.95;26.44
38253;BME280;24785;52.372;20.672;2023-07-08T16:43:00;100918.78;;;29.91;26.19
38253;BME280;24785;52.372;20.672;2023-07-08T16:53:01;100931.72;;;29.55;25.91
38253;BME280;24785;52.372;20.672;2023-07-08T17:03:02;100938.41;;;27.86;29.43
38253;BME280;24785;52.372;20.672;2023-07-08T17:13:03;100931.91;;;27.64;30.25
38253;BME280;24785;52.372;20.672;2023-07-08T17:23:12;100929.81;;;27.24;30.89
38253;BME280;24785;52.372;20.672;2023-07-08T17:33:14;100937.66;;;26.95;32.70
38253;BME280;24785;52.372;20.672;2023-07-08T17:43:16;100948.53;;;26.58;32.50
38253;BME280;24785;52.372;20.672;2023-07-08T17:53:17;100948.75;;;26.27;33.57
38253;BME280;24785;52.372;20.672;2023-07-08T18:03:18;100953.78;;;25.79;34.55
38253;BME280;24785;52.372;20.672;2023-07-08T18:13:19;100953.03;;;25.24;35.94
38253;BME280;24785;52.372;20.672;2023-07-08T18:23:22;100969.16;;;24.43;39.23
38253;BME280;24785;52.372;20.672;2023-07-08T18:33:24;100972.28;;;23.30;43.29
38253;BME280;24785;52.372;20.672;2023-07-08T18:43:25;100989.16;;;22.59;45.69
38253;BME280;24785;52.372;20.672;2023-07-08T18:53:26;100998.88;;;21.69;48.08
38253;BME280;24785;52.372;20.672;2023-07-08T19:03:28;101010.78;;;20.94;51.12
38253;BME280;24785;52.372;20.672;2023-07-08T19:13:29;101033.38;;;20.30;54.05
38253;BME280;24785;52.372;20.672;2023-07-08T19:23:30;101037.94;;;19.83;55.46
38253;BME280;24785;52.372;20.672;2023-07-08T19:33:31;101050.69;;;19.48;57.97
38253;BME280;24785;52.372;20.672;2023-07-08T19:43:33;101045.94;;;18.97;59.42
38253;BME280;24785;52.372;20.672;2023-07-08T19:53:33;101051.56;;;18.69;61.92
38253;BME280;24785;52.372;20.672;2023-07-08T20:03:34;101062.84;;;18.40;65.89
38253;BME280;24785;52.372;20.672;2023-07-08T20:13:36;101071.28;;;17.94;67.38
38253;BME280;24785;52.372;20.672;2023-07-08T20:23:37;101082.31;;;17.48;68.92
38253;BME280;24785;52.372;20.672;2023-07-08T20:33:38;101095.56;;;17.63;67.39
38253;BME280;24785;52.372;20.672;2023-07-08T20:43:39;101081.13;;;18.26;64.55
38253;BME280;24785;52.372;20.672;2023-07-08T20:53:40;101086.03;;;19.00;62.21
38253;BME280;24785;52.372;20.672;2023-07-08T21:03:43;101097.34;;;18.93;61.83
38253;BME280;24785;52.372;20.672;2023-07-08T21:13:47;101098.38;;;18.75;62.23
38253;BME280;24785;52.372;20.672;2023-07-08T21:23:48;101109.16;;;18.44;63.32
38253;BME280;24785;52.372;20.672;2023-07-08T21:33:49;101116.75;;;18.11;64.64
38253;BME280;24785;52.372;20.672;2023-07-08T21:43:50;101113.59;;;17.81;65.93
38253;BME280;24785;52.372;20.672;2023-07-08T21:53:51;101121.47;;;17.42;69.45
38253;BME280;24785;52.372;20.672;2023-07-08T22:03:52;101132.78;;;17.03;71.88
38253;BME280;24785;52.372;20.672;2023-07-08T22:13:54;101144.25;;;16.67;75.42
38253;BME280;24785;52.372;20.672;2023-07-08T22:23:58;101146.09;;;16.34;78.47
38253;BME280;24785;52.372;20.672;2023-07-08T22:33:59;101149.84;;;16.19;78.95
38253;BME280;24785;52.372;20.672;2023-07-08T22:44:00;101140.03;;;15.86;83.27
38253;BME280;24785;52.372;20.672;2023-07-08T22:54:01;101146.47;;;15.90;84.15
38253;BME280;24785;52.372;20.672;2023-07-08T23:04:02;101134.69;;;15.81;84.79
38253;BME280;24785;52.372;20.672;2023-07-08T23:14:03;101143.38;;;15.96;83.27
38253;BME280;24785;52.372;20.672;2023-07-08T23:24:04;101138.72;;;16.21;83.14
38253;BME280;24785;52.372;20.672;2023-07-08T23:34:05;101147.22;;;16.14;83.26
38253;BME280;24785;52.372;20.672;2023-07-08T23:44:07;101143.75;;;15.90;85.67
38253;BME280;24785;52.372;20.672;2023-07-08T23:54:12;101144.63;;;15.85;85.46
